EPCD weather

Depułtycze Królewskie Airport
Lublin, Poland

Public forecast

Using degrees Celsius for public forecast. Weather courtesy of forecast.io.

METAR (pilot weather report)

Closest report is Brest Airport, 64.0 nm (118.5 km) NNE. Retrieved 2019/03/21 05:30 UTC (6 minutes ago):

UMBB 210530Z 28005G08MPS 6000 -SHRA OVC032CB 06/01 Q1028 NOSIG

TAF (pilot weather forecast)

Forecast is more than 12 hours old.

Closest forecast is Brest Airport, 64.0 nm (118.5 km) NNE. Retrieved 2018/08/29 12:21 UTC (7 months ago):

TAF UMBB 291405Z 2912/2924 34005MPS 6000 BKN015 TEMPO 2915/2918 3000 -SHRA SCT020CB TEMPO 2918/2924 2000 BR BKN005